sensor_id;sensor_type;location;lat;lon;timestamp;temperature;humidity
12981;DHT22;6555;50.468;8.480;2023-03-23T00:01:45;16.10;45.20
12981;DHT22;6555;50.468;8.480;2023-03-23T00:06:51;16.10;45.30
12981;DHT22;6555;50.468;8.480;2023-03-23T00:11:53;16.00;45.00
12981;DHT22;6555;50.468;8.480;2023-03-23T00:16:57;16.10;45.30
12981;DHT22;6555;50.468;8.480;2023-03-23T00:22:01;16.00;45.20
12981;DHT22;6555;50.468;8.480;2023-03-23T00:27:03;16.00;45.20
12981;DHT22;6555;50.468;8.480;2023-03-23T00:32:06;16.00;45.40
12981;DHT22;6555;50.468;8.480;2023-03-23T00:37:14;16.00;45.50
12981;DHT22;6555;50.468;8.480;2023-03-23T00:42:18;16.00;45.60
12981;DHT22;6555;50.468;8.480;2023-03-23T00:47:22;16.00;45.60
12981;DHT22;6555;50.468;8.480;2023-03-23T00:52:26;15.90;45.70
12981;DHT22;6555;50.468;8.480;2023-03-23T00:57:28;15.90;45.90
12981;DHT22;6555;50.468;8.480;2023-03-23T01:02:30;15.80;46.00
12981;DHT22;6555;50.468;8.480;2023-03-23T01:07:33;15.70;46.30
12981;DHT22;6555;50.468;8.480;2023-03-23T01:12:36;15.60;46.50
12981;DHT22;6555;50.468;8.480;2023-03-23T01:17:38;15.50;46.80
12981;DHT22;6555;50.468;8.480;2023-03-23T01:22:42;15.40;47.00
12981;DHT22;6555;50.468;8.480;2023-03-23T01:27:44;15.20;47.60
12981;DHT22;6555;50.468;8.480;2023-03-23T01:32:47;15.10;47.60
12981;DHT22;6555;50.468;8.480;2023-03-23T01:37:50;15.00;47.70
12981;DHT22;6555;50.468;8.480;2023-03-23T01:42:53;14.90;47.90
12981;DHT22;6555;50.468;8.480;2023-03-23T01:48:03;14.80;48.00
12981;DHT22;6555;50.468;8.480;2023-03-23T01:53:09;14.70;48.40
12981;DHT22;6555;50.468;8.480;2023-03-23T01:58:12;14.60;48.40
12981;DHT22;6555;50.468;8.480;2023-03-23T02:03:15;14.60;48.80
12981;DHT22;6555;50.468;8.480;2023-03-23T02:08:20;14.50;49.20
12981;DHT22;6555;50.468;8.480;2023-03-23T02:13:24;14.50;49.20
12981;DHT22;6555;50.468;8.480;2023-03-23T02:18:35;14.40;49.10
12981;DHT22;6555;50.468;8.480;2023-03-23T02:23:55;14.40;49.20
12981;DHT22;6555;50.468;8.480;2023-03-23T02:29:44;14.50;49.40
12981;DHT22;6555;50.468;8.480;2023-03-23T02:34:51;14.40;49.20
12981;DHT22;6555;50.468;8.480;2023-03-23T02:39:57;14.50;49.60
12981;DHT22;6555;50.468;8.480;2023-03-23T02:45:05;14.50;49.70
12981;DHT22;6555;50.468;8.480;2023-03-23T02:50:13;14.60;49.70
12981;DHT22;6555;50.468;8.480;2023-03-23T02:55:19;14.60;49.70
12981;DHT22;6555;50.468;8.480;2023-03-23T03:00:26;14.70;49.60
12981;DHT22;6555;50.468;8.480;2023-03-23T03:05:36;14.70;49.60
12981;DHT22;6555;50.468;8.480;2023-03-23T03:10:46;14.80;49.70
12981;DHT22;6555;50.468;8.480;2023-03-23T03:15:54;14.70;49.80
12981;DHT22;6555;50.468;8.480;2023-03-23T03:27:18;14.60;50.20
12981;DHT22;6555;50.468;8.480;2023-03-23T03:32:39;14.50;50.20
12981;DHT22;6555;50.468;8.480;2023-03-23T03:37:45;14.40;50.10
12981;DHT22;6555;50.468;8.480;2023-03-23T03:42:50;14.30;50.20
12981;DHT22;6555;50.468;8.480;2023-03-23T03:47:52;14.30;50.40
12981;DHT22;6555;50.468;8.480;2023-03-23T03:52:54;14.20;50.50
12981;DHT22;6555;50.468;8.480;2023-03-23T03:57:57;14.20;50.50
12981;DHT22;6555;50.468;8.480;2023-03-23T04:03:26;14.20;50.90
12981;DHT22;6555;50.468;8.480;2023-03-23T04:09:01;14.10;50.80
12981;DHT22;6555;50.468;8.480;2023-03-23T04:14:09;14.10;50.90
12981;DHT22;6555;50.468;8.480;2023-03-23T04:19:18;14.10;50.90
12981;DHT22;6555;50.468;8.480;2023-03-23T04:24:20;14.10;50.80
12981;DHT22;6555;50.468;8.480;2023-03-23T04:29:26;14.10;50.90
12981;DHT22;6555;50.468;8.480;2023-03-23T04:34:55;14.10;50.90
12981;DHT22;6555;50.468;8.480;2023-03-23T04:40:03;14.10;50.90
12981;DHT22;6555;50.468;8.480;2023-03-23T04:45:16;14.10;51.10
12981;DHT22;6555;50.468;8.480;2023-03-23T04:50:27;14.10;51.80
12981;DHT22;6555;50.468;8.480;2023-03-23T04:55:35;14.10;52.20
12981;DHT22;6555;50.468;8.480;2023-03-23T05:00:43;14.10;52.20
12981;DHT22;6555;50.468;8.480;2023-03-23T05:05:51;14.10;52.50
12981;DHT22;6555;50.468;8.480;2023-03-23T05:10:56;14.10;52.10
12981;DHT22;6555;50.468;8.480;2023-03-23T05:16:05;14.10;52.00
12981;DHT22;6555;50.468;8.480;2023-03-23T05:21:09;14.10;52.40
12981;DHT22;6555;50.468;8.480;2023-03-23T05:26:15;14.10;52.30
12981;DHT22;6555;50.468;8.480;2023-03-23T05:31:19;14.20;52.40
12981;DHT22;6555;50.468;8.480;2023-03-23T05:36:21;14.20;52.50
12981;DHT22;6555;50.468;8.480;2023-03-23T05:42:05;14.20;52.40
12981;DHT22;6555;50.468;8.480;2023-03-23T05:47:29;14.20;52.70
12981;DHT22;6555;50.468;8.480;2023-03-23T05:53:01;14.20;52.60
12981;DHT22;6555;50.468;8.480;2023-03-23T05:58:20;14.20;52.90
12981;DHT22;6555;50.468;8.480;2023-03-23T06:03:51;14.20;52.90
12981;DHT22;6555;50.468;8.480;2023-03-23T06:09:33;14.30;53.40
12981;DHT22;6555;50.468;8.480;2023-03-23T06:15:07;14.30;53.30
12981;DHT22;6555;50.468;8.480;2023-03-23T06:20:42;14.30;53.80
12981;DHT22;6555;50.468;8.480;2023-03-23T06:26:30;14.40;53.60
12981;DHT22;6555;50.468;8.480;2023-03-23T06:31:55;14.40;53.80
12981;DHT22;6555;50.468;8.480;2023-03-23T06:37:27;14.50;53.80
12981;DHT22;6555;50.468;8.480;2023-03-23T06:42:52;14.50;53.80
12981;DHT22;6555;50.468;8.480;2023-03-23T06:48:39;14.60;53.60
12981;DHT22;6555;50.468;8.480;2023-03-23T06:54:07;14.60;54.00
12981;DHT22;6555;50.468;8.480;2023-03-23T06:59:36;14.60;53.80
12981;DHT22;6555;50.468;8.480;2023-03-23T07:04:52;14.70;54.00
12981;DHT22;6555;50.468;8.480;2023-03-23T07:10:23;14.70;53.80
12981;DHT22;6555;50.468;8.480;2023-03-23T07:15:40;14.70;53.80
12981;DHT22;6555;50.468;8.480;2023-03-23T07:21:10;14.70;53.60
12981;DHT22;6555;50.468;8.480;2023-03-23T07:26:27;14.70;53.80
12981;DHT22;6555;50.468;8.480;2023-03-23T07:31:56;14.80;53.70
12981;DHT22;6555;50.468;8.480;2023-03-23T07:37:12;14.80;53.70
12981;DHT22;6555;50.468;8.480;2023-03-23T07:42:43;14.80;53.70
12981;DHT22;6555;50.468;8.480;2023-03-23T07:48:07;14.80;53.70
12981;DHT22;6555;50.468;8.480;2023-03-23T07:53:36;14.80;54.40
12981;DHT22;6555;50.468;8.480;2023-03-23T07:59:17;14.80;53.70
12981;DHT22;6555;50.468;8.480;2023-03-23T08:04:46;14.80;53.80
12981;DHT22;6555;50.468;8.480;2023-03-23T08:10:20;14.90;53.80
12981;DHT22;6555;50.468;8.480;2023-03-23T08:16:16;14.90;53.80
12981;DHT22;6555;50.468;8.480;2023-03-23T08:21:59;14.90;53.80
12981;DHT22;6555;50.468;8.480;2023-03-23T08:27:57;14.90;53.70
12981;DHT22;6555;50.468;8.480;2023-03-23T08:33:37;14.90;53.70
12981;DHT22;6555;50.468;8.480;2023-03-23T08:39:18;15.00;53.70
12981;DHT22;6555;50.468;8.480;2023-03-23T08:44:52;15.00;53.60
12981;DHT22;6555;50.468;8.480;2023-03-23T08:50:34;15.00;53.60
12981;DHT22;6555;50.468;8.480;2023-03-23T08:56:16;15.10;53.70
12981;DHT22;6555;50.468;8.480;2023-03-23T09:02:04;15.10;53.70
12981;DHT22;6555;50.468;8.480;2023-03-23T09:07:29;15.10;53.60
12981;DHT22;6555;50.468;8.480;2023-03-23T09:12:58;15.20;53.70
12981;DHT22;6555;50.468;8.480;2023-03-23T09:18:15;15.30;53.90
12981;DHT22;6555;50.468;8.480;2023-03-23T09:23:46;15.30;53.70
12981;DHT22;6555;50.468;8.480;2023-03-23T09:29:09;15.50;54.10
12981;DHT22;6555;50.468;8.480;2023-03-23T09:34:32;15.50;54.10
12981;DHT22;6555;50.468;8.480;2023-03-23T09:40:04;15.60;53.90
12981;DHT22;6555;50.468;8.480;2023-03-23T09:45:25;15.70;53.90
12981;DHT22;6555;50.468;8.480;2023-03-23T09:51:04;15.70;53.70
12981;DHT22;6555;50.468;8.480;2023-03-23T09:56:31;15.70;53.30
12981;DHT22;6555;50.468;8.480;2023-03-23T10:02:11;15.70;53.10
12981;DHT22;6555;50.468;8.480;2023-03-23T10:07:28;15.70;52.90
12981;DHT22;6555;50.468;8.480;2023-03-23T10:13:03;15.70;52.80
12981;DHT22;6555;50.468;8.480;2023-03-23T10:18:26;15.70;52.60
12981;DHT22;6555;50.468;8.480;2023-03-23T10:23:58;15.60;52.70
12981;DHT22;6555;50.468;8.480;2023-03-23T10:29:19;15.60;53.00
12981;DHT22;6555;50.468;8.480;2023-03-23T10:34:55;15.50;53.10
12981;DHT22;6555;50.468;8.480;2023-03-23T10:40:14;15.50;53.20
12981;DHT22;6555;50.468;8.480;2023-03-23T10:45:50;15.50;53.30
12981;DHT22;6555;50.468;8.480;2023-03-23T10:51:11;15.60;53.30
12981;DHT22;6555;50.468;8.480;2023-03-23T10:56:44;15.50;53.20
12981;DHT22;6555;50.468;8.480;2023-03-23T11:02:03;15.50;53.30
12981;DHT22;6555;50.468;8.480;2023-03-23T11:07:41;15.50;53.60
12981;DHT22;6555;50.468;8.480;2023-03-23T11:12:58;15.70;53.80
12981;DHT22;6555;50.468;8.480;2023-03-23T11:18:38;15.80;53.30
12981;DHT22;6555;50.468;8.480;2023-03-23T11:23:55;15.90;53.00
12981;DHT22;6555;50.468;8.480;2023-03-23T11:29:26;16.00;52.90
12981;DHT22;6555;50.468;8.480;2023-03-23T11:34:47;16.10;52.90
12981;DHT22;6555;50.468;8.480;2023-03-23T11:40:19;16.10;52.70
12981;DHT22;6555;50.468;8.480;2023-03-23T11:45:38;16.10;52.50
12981;DHT22;6555;50.468;8.480;2023-03-23T11:51:13;16.10;52.10
12981;DHT22;6555;50.468;8.480;2023-03-23T11:56:33;16.10;52.10
12981;DHT22;6555;50.468;8.480;2023-03-23T12:02:13;16.00;52.20
12981;DHT22;6555;50.468;8.480;2023-03-23T12:08:00;16.00;52.00
12981;DHT22;6555;50.468;8.480;2023-03-23T12:13:43;16.00;52.20
12981;DHT22;6555;50.468;8.480;2023-03-23T12:19:12;16.00;52.30
12981;DHT22;6555;50.468;8.480;2023-03-23T12:24:58;16.10;52.60
12981;DHT22;6555;50.468;8.480;2023-03-23T12:30:32;16.20;52.30
12981;DHT22;6555;50.468;8.480;2023-03-23T12:36:11;16.30;52.70
12981;DHT22;6555;50.468;8.480;2023-03-23T12:41:41;16.40;52.70
12981;DHT22;6555;50.468;8.480;2023-03-23T12:47:21;16.60;52.80
12981;DHT22;6555;50.468;8.480;2023-03-23T12:52:48;16.80;52.30
12981;DHT22;6555;50.468;8.480;2023-03-23T12:58:25;16.80;52.00
12981;DHT22;6555;50.468;8.480;2023-03-23T13:03:45;16.90;51.90
12981;DHT22;6555;50.468;8.480;2023-03-23T13:09:20;16.90;52.40
12981;DHT22;6555;50.468;8.480;2023-03-23T13:14:43;17.10;51.80
12981;DHT22;6555;50.468;8.480;2023-03-23T13:26:07;17.20;51.90
12981;DHT22;6555;50.468;8.480;2023-03-23T13:31:41;17.40;52.00
12981;DHT22;6555;50.468;8.480;2023-03-23T13:36:58;17.60;51.60
12981;DHT22;6555;50.468;8.480;2023-03-23T13:42:28;17.70;51.80
12981;DHT22;6555;50.468;8.480;2023-03-23T13:48:03;17.80;51.50
12981;DHT22;6555;50.468;8.480;2023-03-23T13:53:44;17.80;51.50
12981;DHT22;6555;50.468;8.480;2023-03-23T13:59:13;17.90;51.50
12981;DHT22;6555;50.468;8.480;2023-03-23T14:04:47;17.90;51.20
12981;DHT22;6555;50.468;8.480;2023-03-23T14:10:14;17.90;51.00
12981;DHT22;6555;50.468;8.480;2023-03-23T14:15:55;17.90;50.70
12981;DHT22;6555;50.468;8.480;2023-03-23T14:21:17;17.90;50.70
12981;DHT22;6555;50.468;8.480;2023-03-23T14:26:50;17.80;50.50
12981;DHT22;6555;50.468;8.480;2023-03-23T14:32:12;17.70;50.60
12981;DHT22;6555;50.468;8.480;2023-03-23T14:37:48;17.70;50.70
12981;DHT22;6555;50.468;8.480;2023-03-23T14:43:05;17.70;51.00
12981;DHT22;6555;50.468;8.480;2023-03-23T14:48:34;17.70;51.00
12981;DHT22;6555;50.468;8.480;2023-03-23T14:53:55;17.60;50.80
12981;DHT22;6555;50.468;8.480;2023-03-23T14:59:39;17.60;51.00
12981;DHT22;6555;50.468;8.480;2023-03-23T15:05:05;17.70;51.50
12981;DHT22;6555;50.468;8.480;2023-03-23T15:10:40;17.90;51.20
12981;DHT22;6555;50.468;8.480;2023-03-23T15:16:11;17.90;51.10
12981;DHT22;6555;50.468;8.480;2023-03-23T15:21:48;17.90;51.70
12981;DHT22;6555;50.468;8.480;2023-03-23T15:27:17;17.90;50.90
12981;DHT22;6555;50.468;8.480;2023-03-23T15:32:53;17.90;50.50
12981;DHT22;6555;50.468;8.480;2023-03-23T15:38:46;17.90;50.40
12981;DHT22;6555;50.468;8.480;2023-03-23T15:46:01;17.80;50.20
12981;DHT22;6555;50.468;8.480;2023-03-23T15:51:25;17.80;50.10
12981;DHT22;6555;50.468;8.480;2023-03-23T15:57:27;17.70;50.00
12981;DHT22;6555;50.468;8.480;2023-03-23T16:04:10;17.60;49.90
12981;DHT22;6555;50.468;8.480;2023-03-23T16:09:20;17.50;49.60
12981;DHT22;6555;50.468;8.480;2023-03-23T16:14:33;17.50;49.30
12981;DHT22;6555;50.468;8.480;2023-03-23T16:19:40;17.50;49.20
12981;DHT22;6555;50.468;8.480;2023-03-23T16:24:44;17.40;49.00
12981;DHT22;6555;50.468;8.480;2023-03-23T16:29:47;17.30;49.10
12981;DHT22;6555;50.468;8.480;2023-03-23T16:35:06;17.30;49.20
12981;DHT22;6555;50.468;8.480;2023-03-23T16:40:11;17.30;49.00
12981;DHT22;6555;50.468;8.480;2023-03-23T16:45:16;17.20;49.00
12981;DHT22;6555;50.468;8.480;2023-03-23T16:50:21;17.20;48.80
12981;DHT22;6555;50.468;8.480;2023-03-23T16:55:27;17.10;48.90
12981;DHT22;6555;50.468;8.480;2023-03-23T17:00:32;17.00;48.90
12981;DHT22;6555;50.468;8.480;2023-03-23T17:05:37;17.00;49.00
12981;DHT22;6555;50.468;8.480;2023-03-23T17:10:44;16.90;49.20
12981;DHT22;6555;50.468;8.480;2023-03-23T17:15:51;16.90;49.40
12981;DHT22;6555;50.468;8.480;2023-03-23T17:20:58;16.90;49.70
12981;DHT22;6555;50.468;8.480;2023-03-23T17:26:02;16.80;49.70
12981;DHT22;6555;50.468;8.480;2023-03-23T17:31:06;16.80;49.70
12981;DHT22;6555;50.468;8.480;2023-03-23T17:36:11;16.70;49.80
12981;DHT22;6555;50.468;8.480;2023-03-23T17:41:14;16.60;49.90
12981;DHT22;6555;50.468;8.480;2023-03-23T17:46:18;16.50;50.00
12981;DHT22;6555;50.468;8.480;2023-03-23T17:51:23;16.50;50.10
12981;DHT22;6555;50.468;8.480;2023-03-23T17:56:26;16.40;50.10
12981;DHT22;6555;50.468;8.480;2023-03-23T18:01:30;16.30;50.30
12981;DHT22;6555;50.468;8.480;2023-03-23T18:06:35;16.30;50.50
12981;DHT22;6555;50.468;8.480;2023-03-23T18:11:38;16.20;50.60
12981;DHT22;6555;50.468;8.480;2023-03-23T18:16:43;16.10;50.70
12981;DHT22;6555;50.468;8.480;2023-03-23T18:21:53;16.10;50.80
12981;DHT22;6555;50.468;8.480;2023-03-23T18:26:56;16.00;51.00
12981;DHT22;6555;50.468;8.480;2023-03-23T18:32:01;16.00;51.00
12981;DHT22;6555;50.468;8.480;2023-03-23T18:37:06;16.00;51.30
12981;DHT22;6555;50.468;8.480;2023-03-23T18:42:09;15.90;51.30
12981;DHT22;6555;50.468;8.480;2023-03-23T18:47:56;15.90;51.40
12981;DHT22;6555;50.468;8.480;2023-03-23T18:53:30;15.90;51.70
12981;DHT22;6555;50.468;8.480;2023-03-23T19:05:06;15.80;51.70
12981;DHT22;6555;50.468;8.480;2023-03-23T19:11:33;15.80;52.00
12981;DHT22;6555;50.468;8.480;2023-03-23T19:17:44;15.80;52.10
12981;DHT22;6555;50.468;8.480;2023-03-23T19:25:07;15.70;52.30
12981;DHT22;6555;50.468;8.480;2023-03-23T19:31:18;15.70;52.10
12981;DHT22;6555;50.468;8.480;2023-03-23T19:42:13;15.60;52.70
12981;DHT22;6555;50.468;8.480;2023-03-23T19:47:21;15.60;52.20
12981;DHT22;6555;50.468;8.480;2023-03-23T19:52:25;15.60;52.50
12981;DHT22;6555;50.468;8.480;2023-03-23T19:57:29;15.50;52.50
12981;DHT22;6555;50.468;8.480;2023-03-23T20:09:14;15.50;52.80
12981;DHT22;6555;50.468;8.480;2023-03-23T20:14:48;15.40;52.80
12981;DHT22;6555;50.468;8.480;2023-03-23T20:27:01;15.40;52.50
12981;DHT22;6555;50.468;8.480;2023-03-23T20:32:39;15.40;52.60
12981;DHT22;6555;50.468;8.480;2023-03-23T20:37:42;15.40;52.60
12981;DHT22;6555;50.468;8.480;2023-03-23T20:42:47;15.40;52.70
12981;DHT22;6555;50.468;8.480;2023-03-23T20:47:51;15.40;52.90
12981;DHT22;6555;50.468;8.480;2023-03-23T20:52:54;15.40;53.10
12981;DHT22;6555;50.468;8.480;2023-03-23T20:58:00;15.50;53.20
12981;DHT22;6555;50.468;8.480;2023-03-23T21:03:06;15.50;53.30
12981;DHT22;6555;50.468;8.480;2023-03-23T21:08:10;15.50;53.30
12981;DHT22;6555;50.468;8.480;2023-03-23T21:13:15;15.60;53.40
12981;DHT22;6555;50.468;8.480;2023-03-23T21:18:19;15.70;53.40
12981;DHT22;6555;50.468;8.480;2023-03-23T21:23:25;15.70;53.40
12981;DHT22;6555;50.468;8.480;2023-03-23T21:28:34;15.70;53.40
12981;DHT22;6555;50.468;8.480;2023-03-23T21:33:38;15.80;53.40
12981;DHT22;6555;50.468;8.480;2023-03-23T21:38:41;15.80;53.60
12981;DHT22;6555;50.468;8.480;2023-03-23T21:43:47;15.80;53.70
12981;DHT22;6555;50.468;8.480;2023-03-23T21:48:51;15.80;53.90
12981;DHT22;6555;50.468;8.480;2023-03-23T21:53:59;15.90;53.90
12981;DHT22;6555;50.468;8.480;2023-03-23T21:59:05;15.80;54.20
12981;DHT22;6555;50.468;8.480;2023-03-23T22:04:11;15.90;54.30
12981;DHT22;6555;50.468;8.480;2023-03-23T22:09:15;15.80;54.50
12981;DHT22;6555;50.468;8.480;2023-03-23T22:14:26;15.80;54.70
12981;DHT22;6555;50.468;8.480;2023-03-23T22:19:30;15.80;54.80
12981;DHT22;6555;50.468;8.480;2023-03-23T22:24:34;15.80;54.70
12981;DHT22;6555;50.468;8.480;2023-03-23T22:29:39;15.80;54.80
12981;DHT22;6555;50.468;8.480;2023-03-23T22:34:42;15.80;54.90
12981;DHT22;6555;50.468;8.480;2023-03-23T22:39:48;15.80;54.90
12981;DHT22;6555;50.468;8.480;2023-03-23T22:44:53;15.80;54.80
12981;DHT22;6555;50.468;8.480;2023-03-23T22:49:56;15.80;54.90
12981;DHT22;6555;50.468;8.480;2023-03-23T22:54:59;15.70;54.90
12981;DHT22;6555;50.468;8.480;2023-03-23T23:00:05;15.70;55.10
12981;DHT22;6555;50.468;8.480;2023-03-23T23:05:16;15.70;55.10
12981;DHT22;6555;50.468;8.480;2023-03-23T23:10:20;15.70;55.20
12981;DHT22;6555;50.468;8.480;2023-03-23T23:15:25;15.80;55.40
12981;DHT22;6555;50.468;8.480;2023-03-23T23:20:29;15.70;55.50
12981;DHT22;6555;50.468;8.480;2023-03-23T23:25:34;15.70;55.50
12981;DHT22;6555;50.468;8.480;2023-03-23T23:30:39;15.70;55.60
12981;DHT22;6555;50.468;8.480;2023-03-23T23:35:46;15.60;55.50
12981;DHT22;6555;50.468;8.480;2023-03-23T23:40:50;15.60;55.50
12981;DHT22;6555;50.468;8.480;2023-03-23T23:45:56;15.50;55.50
12981;DHT22;6555;50.468;8.480;2023-03-23T23:51:05;15.50;55.60
12981;DHT22;6555;50.468;8.480;2023-03-23T23:56:09;15.40;55.50
